Time;durP1;ratioP1;P1;durP2;ratioP2;P2;SDS_P1;SDS_P2;PMS_P1;PMS_P2;Temp;Humidity;BMP_temperature;BMP_pressure;BME280_temperature;BME280_humidity;BME280_pressure;Samples;Min_cycle;Max_cycle;Signal;HPM_P1;HPM_P2
2021/05/25 00:00:14;;;;;;;2.60;1.82;;;;;;;14.40;58.39;97717.88;1790182;80;21035;-76
2021/05/25 00:02:44;;;;;;;3.90;2.10;;;;;;;14.35;57.83;97731.62;1790308;78;20935;-76
2021/05/25 00:05:12;;;;;;;6.12;1.87;;;;;;;14.31;58.22;97735.29;1790407;80;21070;-76
2021/05/25 00:07:38;;;;;;;3.92;2.27;;;;;;;14.26;59.42;97725.31;1790136;78;20931;-76
2021/05/25 00:10:05;;;;;;;3.85;2.33;;;;;;;14.23;58.69;97734.11;1763764;80;21495;-76
2021/05/25 00:12:31;;;;;;;6.83;2.90;;;;;;;14.19;59.21;97729.61;1763501;80;21019;-76
2021/05/25 00:14:57;;;;;;;7.87;3.17;;;;;;;14.09;59.49;97727.35;1790124;80;21434;-76
2021/05/25 00:17:23;;;;;;;5.03;2.85;;;;;;;14.06;59.25;97736.16;1790105;78;20955;-76
2021/05/25 00:19:49;;;;;;;6.05;2.75;;;;;;;14.02;59.43;97732.45;1790599;80;20903;-76
2021/05/25 00:22:15;;;;;;;8.38;4.30;;;;;;;13.95;60.66;97723.90;1790109;78;21097;-76
2021/05/25 00:24:42;;;;;;;10.75;5.40;;;;;;;13.87;61.05;97715.66;1790082;80;20883;-76
2021/05/25 00:27:08;;;;;;;8.70;4.20;;;;;;;13.78;61.82;97730.56;1790051;78;21137;-75
2021/05/25 00:29:34;;;;;;;7.65;3.62;;;;;;;13.74;61.71;97743.16;1790123;80;21466;-75
2021/05/25 00:32:00;;;;;;;7.05;2.70;;;;;;;13.69;62.06;97740.58;1790190;78;21030;-75
2021/05/25 00:34:26;;;;;;;5.75;3.50;;;;;;;13.69;62.26;97765.08;1789957;80;21851;-75
2021/05/25 00:36:52;;;;;;;7.00;3.12;;;;;;;13.72;63.14;97760.37;1789920;78;20879;-75
2021/05/25 00:39:18;;;;;;;6.55;3.25;;;;;;;13.61;63.59;97747.55;1790218;80;20904;-75
2021/05/25 00:41:43;;;;;;;6.15;3.05;;;;;;;13.48;65.94;97730.67;1790116;80;21452;-75
2021/05/25 00:44:10;;;;;;;7.83;3.20;;;;;;;13.38;67.82;97711.84;1790142;78;20851;-75
2021/05/25 00:46:36;;;;;;;5.97;3.08;;;;;;;13.35;64.90;97711.11;1789959;80;20945;-75
2021/05/25 00:49:04;;;;;;;4.37;2.30;;;;;;;13.25;65.52;97705.33;1790104;78;21023;-75
2021/05/25 00:51:30;;;;;;;4.60;2.25;;;;;;;13.11;67.16;97690.89;1763765;80;20936;-75
2021/05/25 00:53:56;;;;;;;3.95;1.95;;;;;;;13.08;67.28;97681.44;1790057;78;21383;-75
2021/05/25 00:56:22;;;;;;;4.53;2.37;;;;;;;13.00;66.54;97679.42;1763539;80;20907;-75
2021/05/25 00:58:48;;;;;;;5.95;2.08;;;;;;;12.99;65.86;97698.22;1790083;78;21010;-75
2021/05/25 01:01:14;;;;;;;4.87;2.37;;;;;;;12.93;66.21;97705.66;1789907;80;21669;-75
2021/05/25 01:03:40;;;;;;;8.28;2.83;;;;;;;12.95;66.05;97703.99;1790081;78;21561;-75
2021/05/25 01:06:06;;;;;;;3.95;2.30;;;;;;;12.92;69.03;97679.58;1790073;80;20927;-75
2021/05/25 01:08:34;;;;;;;7.05;1.98;;;;;;;12.89;68.25;97677.45;1790083;78;20980;-75
2021/05/25 01:11:07;;;;;;;6.03;1.85;;;;;;;12.85;67.77;97660.14;1790470;80;21585;-76
2021/05/25 01:13:29;;;;;;;2.90;2.10;;;;;;;12.78;68.97;97655.66;1788231;78;21572;-76
2021/05/25 01:15:55;;;;;;;7.58;3.67;;;;;;;12.68;70.27;97646.34;1790064;80;20991;-76
2021/05/25 01:18:21;;;;;;;6.55;3.87;;;;;;;12.67;68.89;97652.34;1790022;78;20963;-76
2021/05/25 01:20:49;;;;;;;11.63;5.03;;;;;;;12.65;68.16;97668.16;1790427;80;20938;-76
2021/05/25 01:23:15;;;;;;;6.55;4.03;;;;;;;12.60;67.78;97672.31;1789925;78;20965;-76
2021/05/25 01:25:45;;;;;;;4.53;2.67;;;;;;;12.63;67.59;97677.14;1790512;80;20994;-76
2021/05/25 01:28:11;;;;;;;6.47;2.40;;;;;;;12.63;67.65;97673.61;1790267;78;20935;-76
2021/05/25 01:30:44;;;;;;;4.87;2.87;;;;;;;12.50;69.78;97680.66;1789896;80;20946;-76
2021/05/25 01:33:10;;;;;;;5.90;3.22;;;;;;;12.52;68.62;97685.23;1789913;78;21038;-75
2021/05/25 01:35:36;;;;;;;4.55;2.77;;;;;;;12.58;68.90;97682.69;1738772;80;21546;-75
2021/05/25 01:38:04;;;;;;;7.58;2.70;;;;;;;12.57;71.84;97687.06;1789877;78;20880;-75
2021/05/25 01:40:30;;;;;;;22.60;3.92;;;;;;;12.58;69.68;97679.97;1789952;80;21529;-75
2021/05/25 01:42:56;;;;;;;5.53;3.37;;;;;;;12.61;69.79;97690.23;1763504;80;20896;-75
2021/05/25 01:45:26;;;;;;;7.12;3.02;;;;;;;12.65;69.55;97721.16;1790372;80;20982;-75
2021/05/25 01:47:53;;;;;;;7.83;3.10;;;;;;;12.74;69.31;97740.85;1789899;78;21065;-76
2021/05/25 01:50:19;;;;;;;8.43;4.05;;;;;;;12.77;69.95;97706.26;1789923;80;21278;-76
2021/05/25 01:52:59;;;;;;;6.97;2.77;;;;;;;12.55;73.65;97673.75;1789938;78;20955;-76
2021/05/25 01:55:29;;;;;;;4.42;2.55;;;;;;;12.49;72.30;97653.23;1761965;80;21038;-76
2021/05/25 01:58:01;;;;;;;6.95;2.55;;;;;;;12.34;71.53;97663.02;1789958;78;20932;-76
2021/05/25 02:00:27;;;;;;;6.12;2.60;;;;;;;12.21;73.17;97662.43;1789140;80;21103;-76
2021/05/25 02:02:53;;;;;;;7.25;2.37;;;;;;;12.22;72.84;97677.09;1789991;78;21027;-76
2021/05/25 02:05:19;;;;;;;4.78;2.33;;;;;;;12.25;72.64;97693.34;1790077;80;21550;-76
2021/05/25 02:07:47;;;;;;;7.03;3.42;;;;;;;12.30;72.65;97692.69;1790001;78;20951;-76
2021/05/25 02:10:31;;;;;;;5.45;2.85;;;;;;;12.21;75.72;97683.61;1790108;80;21455;-76
2021/05/25 02:13:02;;;;;;;4.17;2.30;;;;;;;12.14;75.51;97674.51;1790223;78;20956;-75
2021/05/25 02:15:29;;;;;;;3.47;2.00;;;;;;;11.96;75.14;97684.03;1763603;80;21007;-76
2021/05/25 02:17:55;;;;;;;5.12;2.67;;;;;;;11.85;75.72;97680.69;1789884;78;20908;-76
2021/05/25 02:20:21;;;;;;;4.92;2.00;;;;;;;11.72;75.49;97667.30;1763566;80;21529;-76
2021/05/25 02:22:47;;;;;;;5.67;2.20;;;;;;;11.72;75.89;97671.92;1790012;78;21537;-76
2021/05/25 02:25:13;;;;;;;8.85;3.58;;;;;;;11.67;75.96;97677.41;1790065;80;21161;-76
2021/05/25 02:27:39;;;;;;;10.18;3.50;;;;;;;11.72;76.24;97695.80;1787544;79;21118;-76
2021/05/25 02:30:06;;;;;;;7.75;2.72;;;;;;;11.79;76.05;97704.38;1786588;80;20892;-76
2021/05/25 02:32:32;;;;;;;5.65;2.67;;;;;;;11.93;76.01;97733.51;1786572;79;21419;-76
2021/05/25 02:34:58;;;;;;;7.35;2.42;;;;;;;11.99;76.31;97741.29;1786589;80;20892;-76
2021/05/25 02:37:24;;;;;;;4.20;2.35;;;;;;;11.99;76.43;97781.22;1786645;79;20968;-76
2021/05/25 02:39:50;;;;;;;3.62;2.55;;;;;;;12.03;76.51;97841.42;1787058;80;20880;-76
2021/05/25 02:42:16;;;;;;;8.05;2.50;;;;;;;12.04;76.48;97832.17;1786668;79;20923;-76
2021/05/25 02:44:42;;;;;;;2.98;1.80;;;;;;;12.10;76.12;97816.62;1756136;80;21549;-76
2021/05/25 02:47:08;;;;;;;4.80;1.95;;;;;;;12.13;76.00;97812.78;1786582;79;20919;-76
2021/05/25 02:49:34;;;;;;;5.33;2.92;;;;;;;12.10;76.21;97807.11;1756173;80;21549;-76
2021/05/25 02:52:00;;;;;;;2.90;2.08;;;;;;;12.08;76.49;97834.57;1786520;79;20959;-76
2021/05/25 02:54:26;;;;;;;4.30;2.87;;;;;;;12.10;76.21;97818.78;1756107;80;21502;-76
2021/05/25 02:56:52;;;;;;;3.92;1.62;;;;;;;12.12;75.71;97794.03;1786648;79;21049;-76
2021/05/25 02:59:18;;;;;;;3.25;2.15;;;;;;;12.13;75.33;97773.92;1786834;80;20875;-76
2021/05/25 03:01:44;;;;;;;4.45;2.30;;;;;;;12.13;75.05;97768.48;1756613;80;21095;-76
2021/05/25 03:04:10;;;;;;;3.27;1.85;;;;;;;12.11;75.42;97787.80;1786844;79;20986;-76
2021/05/25 03:06:36;;;;;;;4.05;1.80;;;;;;;12.12;75.65;97771.75;1786686;80;20899;-76
2021/05/25 03:09:04;;;;;;;5.35;2.58;;;;;;;12.10;75.31;97746.00;1787031;79;20908;-76
2021/05/25 03:11:30;;;;;;;9.23;1.77;;;;;;;12.13;75.41;97760.34;1786843;80;21003;-76
2021/05/25 03:13:57;;;;;;;5.12;2.05;;;;;;;12.08;76.78;97765.31;1786671;79;21383;-76
2021/05/25 03:16:23;;;;;;;3.33;1.70;;;;;;;11.96;77.72;97769.02;1756049;80;21062;-76
2021/05/25 03:18:49;;;;;;;7.30;2.00;;;;;;;11.74;77.72;97771.50;1786799;79;21069;-76
2021/05/25 03:21:15;;;;;;;3.85;1.80;;;;;;;11.59;77.54;97763.81;1786809;80;20963;-76
2021/05/25 03:23:41;;;;;;;3.52;1.37;;;;;;;11.54;78.40;97755.76;1787091;79;20986;-76
2021/05/25 03:26:07;;;;;;;5.30;2.33;;;;;;;11.50;78.09;97754.71;1756481;80;21126;-76
2021/05/25 03:28:33;;;;;;;1.90;1.27;;;;;;;11.45;78.99;97752.08;1786600;78;21497;-76
2021/05/25 03:30:59;;;;;;;3.27;1.72;;;;;;;11.49;78.65;97742.25;1786728;80;20975;-76
2021/05/25 03:33:25;;;;;;;3.60;1.87;;;;;;;11.46;80.32;97728.47;1786708;79;21418;-76
2021/05/25 03:35:51;;;;;;;2.20;1.40;;;;;;;11.46;81.11;97722.49;1786776;80;20867;-76
2021/05/25 03:38:17;;;;;;;4.03;1.72;;;;;;;11.42;80.25;97711.95;1786673;79;21093;-76
2021/05/25 03:40:43;;;;;;;3.30;1.10;;;;;;;11.39;81.15;97713.91;1756324;80;21002;-76
2021/05/25 03:43:09;;;;;;;3.95;1.75;;;;;;;11.42;79.97;97720.09;1786759;79;21031;-76
2021/05/25 03:45:35;;;;;;;1.65;1.20;;;;;;;11.43;80.62;97727.68;1786799;80;20943;-76
2021/05/25 03:48:01;;;;;;;4.17;1.72;;;;;;;11.49;79.48;97718.38;1786713;79;20991;-76
2021/05/25 03:50:27;;;;;;;5.65;1.45;;;;;;;11.52;80.20;97694.17;1786681;80;21263;-76
2021/05/25 03:52:54;;;;;;;4.67;1.35;;;;;;;11.55;81.03;97682.75;1786767;79;20875;-76
2021/05/25 03:55:52;;;;;;;2.45;1.52;;;;;;;11.62;80.87;97675.56;1756650;80;21007;-76
2021/05/25 04:00:38;;;;;;;6.92;1.92;;;;;;;11.76;80.20;97681.07;1787327;80;20987;-76
2021/05/25 04:03:04;;;;;;;4.42;2.10;;;;;;;11.82;79.50;97693.50;1786833;79;21243;-76
2021/05/25 04:05:31;;;;;;;4.60;1.85;;;;;;;11.91;79.25;97704.50;1786742;80;20935;-76
2021/05/25 04:07:57;;;;;;;2.05;1.55;;;;;;;11.96;79.25;97699.77;1786686;79;20887;-76
2021/05/25 04:10:22;;;;;;;3.90;1.60;;;;;;;12.00;79.02;97693.22;1786904;80;20989;-76
2021/05/25 04:12:48;;;;;;;3.30;1.60;;;;;;;11.99;79.20;97684.27;1787160;79;20880;-76
2021/05/25 04:15:15;;;;;;;5.00;2.02;;;;;;;11.93;79.28;97700.93;1786846;80;21247;-76
2021/05/25 04:17:41;;;;;;;4.33;2.95;;;;;;;11.88;79.40;97690.14;1786674;79;21062;-76
2021/05/25 04:20:10;;;;;;;3.20;2.22;;;;;;;11.84;79.35;97693.45;1786762;80;21006;-76
2021/05/25 04:22:36;;;;;;;5.17;2.85;;;;;;;11.90;79.01;97694.19;1786743;79;20967;-76
2021/05/25 04:25:04;;;;;;;5.92;2.80;;;;;;;12.02;78.82;97705.94;1786801;80;21452;-76
2021/05/25 04:27:30;;;;;;;4.70;2.33;;;;;;;12.13;78.48;97710.09;1786629;79;21082;-76
2021/05/25 04:29:56;;;;;;;6.45;2.40;;;;;;;12.25;78.35;97713.72;1786723;80;20896;-76
2021/05/25 04:32:22;;;;;;;7.00;4.22;;;;;;;12.30;78.91;97716.33;1786719;80;20864;-76
2021/05/25 04:34:48;;;;;;;9.20;4.50;;;;;;;12.32;79.39;97709.52;1786768;80;20962;-76
2021/05/25 04:37:14;;;;;;;5.35;3.17;;;;;;;12.36;79.07;97708.35;1754767;80;21458;-76
2021/05/25 04:39:40;;;;;;;11.08;2.47;;;;;;;12.37;80.11;97714.03;1786731;80;21090;-76
2021/05/25 04:42:06;;;;;;;4.92;2.40;;;;;;;12.37;80.23;97718.92;1786559;79;20884;-76
2021/05/25 04:44:32;;;;;;;4.17;2.83;;;;;;;12.39;79.97;97714.02;1786779;80;20959;-76
2021/05/25 04:46:58;;;;;;;5.55;3.72;;;;;;;12.28;79.41;97710.39;1786850;79;20871;-76
2021/05/25 04:49:24;;;;;;;9.08;4.60;;;;;;;12.25;80.00;97730.02;1786840;80;21018;-76
2021/05/25 04:51:50;;;;;;;7.10;4.10;;;;;;;12.27;79.79;97730.52;1756258;79;21505;-76
2021/05/25 04:54:16;;;;;;;11.40;4.33;;;;;;;12.34;79.98;97736.38;1786804;80;20848;-76
2021/05/25 04:56:42;;;;;;;6.72;3.37;;;;;;;12.42;80.15;97735.70;1786707;80;20911;-76
2021/05/25 04:59:08;;;;;;;7.17;3.80;;;;;;;12.38;80.61;97736.02;1786723;79;20923;-76
2021/05/25 05:01:34;;;;;;;5.70;3.12;;;;;;;12.48;79.84;97741.31;1786869;80;20966;-76
2021/05/25 05:04:00;;;;;;;8.30;4.03;;;;;;;12.46;80.51;97735.89;1786585;79;21772;-76
2021/05/25 05:06:26;;;;;;;7.03;4.40;;;;;;;12.49;80.15;97737.48;1786591;80;20963;-76
2021/05/25 05:08:52;;;;;;;9.33;4.70;;;;;;;12.59;79.34;97744.09;1786667;79;20945;-76
2021/05/25 05:11:18;;;;;;;9.15;6.05;;;;;;;12.55;79.07;97740.34;1786832;80;20876;-76
2021/05/25 05:13:44;;;;;;;7.47;4.55;;;;;;;12.52;79.21;97739.59;1786748;79;21001;-76
2021/05/25 05:16:12;;;;;;;8.40;3.17;;;;;;;12.51;80.44;97739.89;1786817;80;21006;-76
2021/05/25 05:18:38;;;;;;;5.42;3.17;;;;;;;12.55;79.95;97737.63;1786722;79;20939;-76
2021/05/25 05:21:04;;;;;;;5.78;3.10;;;;;;;12.52;79.97;97736.87;1786716;80;21458;-76
2021/05/25 05:23:30;;;;;;;5.65;3.00;;;;;;;12.55;79.74;97740.89;1786742;79;21018;-76
2021/05/25 05:25:56;;;;;;;6.08;3.35;;;;;;;12.57;79.94;97738.16;1786742;80;20939;-76
2021/05/25 05:28:22;;;;;;;5.47;3.47;;;;;;;12.62;79.94;97727.73;1786523;79;20941;-76
2021/05/25 05:30:48;;;;;;;4.67;2.35;;;;;;;12.70;79.74;97731.91;1787191;80;20880;-76
2021/05/25 05:33:14;;;;;;;5.60;2.50;;;;;;;12.73;80.59;97737.86;1786746;79;20848;-76
2021/05/25 05:35:40;;;;;;;3.62;2.20;;;;;;;12.82;80.12;97753.72;1786660;80;20871;-76
2021/05/25 05:38:07;;;;;;;4.30;2.55;;;;;;;12.86;79.73;97754.75;1786798;79;20924;-76
2021/05/25 05:40:34;;;;;;;12.18;11.08;;;;;;;12.91;79.62;97756.02;1786630;80;21211;-76
2021/05/25 05:43:00;;;;;;;5.78;3.98;;;;;;;12.99;80.03;97757.49;1786543;79;20991;-76
2021/05/25 05:45:26;;;;;;;6.05;3.92;;;;;;;13.01;79.20;97763.18;1756252;80;20983;-76
2021/05/25 05:47:52;;;;;;;4.78;3.30;;;;;;;12.93;79.29;97754.61;1786737;79;21434;-76
2021/05/25 05:50:18;;;;;;;6.62;3.05;;;;;;;12.93;78.84;97755.97;1786656;80;20958;-76
2021/05/25 05:52:44;;;;;;;6.08;3.65;;;;;;;12.86;78.85;97761.55;1786609;79;20999;-76
2021/05/25 05:55:12;;;;;;;7.17;3.92;;;;;;;12.87;79.68;97755.00;1786755;80;20892;-76
2021/05/25 05:57:38;;;;;;;6.92;3.08;;;;;;;12.82;79.82;97759.16;1786587;79;20960;-76
2021/05/25 06:00:07;;;;;;;7.37;4.53;;;;;;;12.82;80.13;97768.67;1756406;80;21042;-76
2021/05/25 06:02:33;;;;;;;6.00;3.35;;;;;;;12.82;80.53;97763.23;1787199;79;20959;-76
2021/05/25 06:04:59;;;;;;;6.00;4.10;;;;;;;12.91;80.10;97763.62;1786713;80;21086;-76
2021/05/25 06:07:25;;;;;;;7.40;4.17;;;;;;;13.05;80.50;97762.27;1786691;79;20943;-76
2021/05/25 06:09:54;;;;;;;4.47;3.10;;;;;;;13.20;80.51;97757.91;1786622;80;21022;-76
2021/05/25 06:12:19;;;;;;;6.67;4.78;;;;;;;13.33;79.92;97754.95;1786558;79;21063;-76
2021/05/25 06:14:45;;;;;;;6.65;4.78;;;;;;;13.42;79.58;97746.33;1786631;80;20993;-76
2021/05/25 06:17:11;;;;;;;8.90;5.65;;;;;;;13.43;80.28;97742.48;1786734;79;21102;-76
2021/05/25 06:19:37;;;;;;;15.28;9.15;;;;;;;13.53;79.55;97742.27;1786580;80;20927;-76
2021/05/25 06:22:03;;;;;;;11.75;7.30;;;;;;;13.55;80.58;97750.92;1786836;79;20951;-76
2021/05/25 06:24:29;;;;;;;7.83;6.35;;;;;;;13.65;79.34;97751.25;1786724;80;21011;-76
2021/05/25 06:26:55;;;;;;;7.78;3.20;;;;;;;13.71;78.94;97752.77;1786641;79;20939;-76
2021/05/25 06:29:21;;;;;;;5.87;4.22;;;;;;;13.72;78.63;97753.56;1786552;80;21092;-76
2021/05/25 06:31:47;;;;;;;5.97;3.87;;;;;;;13.72;78.86;97753.01;1786608;80;20991;-76
2021/05/25 06:34:13;;;;;;;4.17;3.30;;;;;;;13.80;78.63;97755.56;1786541;80;20908;-76
2021/05/25 06:36:39;;;;;;;5.53;3.27;;;;;;;13.73;78.88;97751.09;1787034;80;21126;-76
2021/05/25 06:39:06;;;;;;;5.72;4.05;;;;;;;13.78;78.83;97753.71;1786695;79;20828;-76
2021/05/25 06:41:32;;;;;;;5.17;3.17;;;;;;;13.91;78.53;97753.41;1786586;80;21861;-76
2021/05/25 06:43:58;;;;;;;6.78;4.05;;;;;;;14.12;78.47;97754.56;1786494;79;20856;-76
2021/05/25 06:46:24;;;;;;;9.10;3.67;;;;;;;14.33;78.52;97742.03;1786570;80;21019;-75
2021/05/25 06:48:50;;;;;;;6.20;4.08;;;;;;;14.57;77.81;97743.66;1786714;79;20828;-75
2021/05/25 06:51:16;;;;;;;8.30;4.30;;;;;;;14.79;76.96;97735.45;1786822;80;21018;-75
2021/05/25 06:53:42;;;;;;;10.13;5.15;;;;;;;14.93;76.00;97738.86;1786599;79;21002;-75
2021/05/25 06:56:08;;;;;;;7.42;5.12;;;;;;;15.02;74.18;97732.08;1786591;80;21506;-75
2021/05/25 06:58:34;;;;;;;7.37;6.00;;;;;;;15.03;73.86;97738.34;1786541;79;20939;-75
2021/05/25 07:01:00;;;;;;;11.75;4.03;;;;;;;15.11;74.06;97732.11;1756377;80;20844;-76
2021/05/25 07:03:26;;;;;;;4.65;3.20;;;;;;;15.13;73.29;97736.16;1786755;79;20844;-76
2021/05/25 07:05:52;;;;;;;5.28;2.83;;;;;;;15.28;72.94;97733.53;1786666;80;21068;-77
2021/05/25 07:08:18;;;;;;;5.00;3.40;;;;;;;15.44;72.64;97729.23;1786601;79;21406;-77
2021/05/25 07:10:44;;;;;;;11.30;3.67;;;;;;;15.60;71.74;97725.49;1786685;80;20934;-77
2021/05/25 07:13:12;;;;;;;9.08;4.67;;;;;;;15.62;71.35;97730.66;1786555;79;21078;-77
2021/05/25 07:15:38;;;;;;;8.70;4.03;;;;;;;15.73;71.09;97729.25;1786973;80;20987;-76
2021/05/25 07:18:04;;;;;;;10.25;4.08;;;;;;;15.77;70.60;97730.20;1786741;79;20974;-76
2021/05/25 07:20:30;;;;;;;11.43;5.28;;;;;;;15.65;70.04;97734.14;1731122;80;21549;-76
2021/05/25 07:22:56;;;;;;;10.80;5.87;;;;;;;15.53;69.93;97739.61;1755907;80;20904;-76
2021/05/25 07:25:24;;;;;;;8.78;4.87;;;;;;;15.39;69.81;97747.15;1756287;80;20935;-76
2021/05/25 07:27:50;;;;;;;10.83;5.40;;;;;;;15.36;69.33;97746.40;1786758;79;20884;-76
2021/05/25 07:30:17;;;;;;;11.97;5.78;;;;;;;15.14;70.03;97750.04;1786603;80;21238;-77
2021/05/25 07:32:43;;;;;;;15.30;7.78;;;;;;;15.11;70.55;97753.94;1756400;80;20927;-76
2021/05/25 07:35:10;;;;;;;9.75;6.33;;;;;;;15.02;70.56;97760.73;1786736;80;20892;-76
2021/05/25 07:37:36;;;;;;;14.65;7.45;;;;;;;14.88;70.90;97763.57;1756112;80;20983;-76
2021/05/25 07:40:03;;;;;;;14.58;6.22;;;;;;;14.90;71.75;97760.52;1786662;80;20983;-76
2021/05/25 07:42:29;;;;;;;8.90;5.72;;;;;;;14.91;71.85;97762.93;1786634;79;21098;-76
2021/05/25 07:44:56;;;;;;;15.05;7.80;;;;;;;14.97;71.73;97773.72;1786815;80;21388;-76
2021/05/25 07:47:23;;;;;;;21.68;6.90;;;;;;;14.98;71.62;97771.23;1786705;79;20999;-76
2021/05/25 07:49:49;;;;;;;21.20;7.37;;;;;;;14.90;71.03;97770.07;1786789;80;20975;-75
2021/05/25 07:52:17;;;;;;;9.23;6.00;;;;;;;14.75;71.21;97779.45;1786807;79;20932;-76
2021/05/25 07:54:43;;;;;;;41.33;8.70;;;;;;;14.78;71.37;97784.83;1787127;80;21213;-76
2021/05/25 07:57:09;;;;;;;22.75;6.97;;;;;;;14.82;71.48;97792.09;1786862;79;20880;-76
2021/05/25 07:59:36;;;;;;;9.08;5.37;;;;;;;14.83;72.22;97785.52;1786760;80;20920;-76
2021/05/25 08:02:02;;;;;;;11.25;5.35;;;;;;;14.86;72.02;97794.42;1723480;79;21490;-76
2021/05/25 08:04:28;;;;;;;10.75;4.65;;;;;;;14.94;72.11;97790.14;1786757;80;20844;-76
2021/05/25 08:06:55;;;;;;;7.47;4.22;;;;;;;14.94;72.10;97796.39;1787060;78;21116;-76
2021/05/25 08:09:21;;;;;;;6.28;3.02;;;;;;;14.98;72.28;97798.52;1756254;80;20908;-76
2021/05/25 08:11:47;;;;;;;6.97;2.47;;;;;;;14.95;72.23;97804.02;1786802;80;21017;-76
2021/05/25 08:14:13;;;;;;;3.62;2.47;;;;;;;14.95;72.07;97802.66;1786837;80;20979;-76
2021/05/25 08:16:41;;;;;;;5.67;3.02;;;;;;;15.01;71.73;97808.23;1786731;80;20907;-76
2021/05/25 08:19:25;;;;;;;5.17;2.70;;;;;;;15.05;71.85;97809.23;1786502;79;21868;-76
2021/05/25 08:21:43;;;;;;;5.10;3.65;;;;;;;15.10;72.07;97815.90;1759275;80;20999;-76
2021/05/25 08:24:09;;;;;;;5.55;3.42;;;;;;;15.20;71.94;97814.81;1786724;79;20919;-75
2021/05/25 08:26:36;;;;;;;4.42;2.17;;;;;;;15.27;72.13;97815.73;1786714;80;21058;-75
2021/05/25 08:29:03;;;;;;;2.52;1.90;;;;;;;15.46;72.62;97814.91;1786683;79;20979;-75
2021/05/25 08:31:30;;;;;;;2.98;2.27;;;;;;;15.29;72.42;97817.58;1786765;80;21106;-75
2021/05/25 08:33:55;;;;;;;3.12;1.95;;;;;;;15.34;72.53;97822.91;1786769;79;20940;-75
2021/05/25 08:36:22;;;;;;;18.67;16.35;;;;;;;15.34;72.13;97821.55;1786668;80;20947;-75
2021/05/25 08:38:48;;;;;;;6.05;3.50;;;;;;;15.25;72.18;97831.06;1786806;79;20951;-75
2021/05/25 08:41:14;;;;;;;4.12;3.35;;;;;;;15.27;71.93;97830.75;1786759;80;20872;-75
2021/05/25 08:43:41;;;;;;;10.75;5.05;;;;;;;15.18;72.13;97832.08;1786925;79;21068;-75
2021/05/25 08:46:07;;;;;;;6.22;3.90;;;;;;;15.17;72.21;97841.38;1786787;80;21060;-75
2021/05/25 08:48:40;;;;;;;2.65;2.08;;;;;;;15.17;72.25;97839.45;1786694;79;21391;-75
2021/05/25 08:51:06;;;;;;;5.72;3.62;;;;;;;15.20;72.06;97838.02;1786289;80;21019;-76
2021/05/25 08:53:32;;;;;;;4.58;3.08;;;;;;;15.22;72.21;97838.53;1786694;79;21436;-76
2021/05/25 08:55:59;;;;;;;5.08;2.33;;;;;;;15.24;72.14;97843.91;1786659;80;21838;-76
2021/05/25 08:58:25;;;;;;;3.08;2.70;;;;;;;15.22;71.93;97855.71;1786533;79;20817;-76
2021/05/25 09:00:53;;;;;;;3.27;2.67;;;;;;;15.20;71.88;97857.92;1786925;80;21502;-76
2021/05/25 09:03:20;;;;;;;10.50;3.42;;;;;;;15.23;71.44;97857.88;1787004;79;21010;-76
2021/05/25 09:05:56;;;;;;;8.10;5.08;;;;;;;15.23;71.44;97857.88;1786812;80;21019;-76
2021/05/25 09:08:23;;;;;;;5.30;2.90;;;;;;;15.21;71.83;97861.45;1786727;79;21498;-76
2021/05/25 09:10:50;;;;;;;4.50;3.47;;;;;;;15.32;71.69;97857.92;1786589;80;20879;-76
2021/05/25 09:13:22;;;;;;;4.87;2.33;;;;;;;15.26;72.01;97854.51;1786847;79;20932;-77
2021/05/25 09:15:54;;;;;;;7.83;3.42;;;;;;;15.29;72.10;97861.25;1786550;80;21423;-76
2021/05/25 09:18:29;;;;;;;4.75;3.02;;;;;;;15.31;72.56;97860.41;1756330;80;21011;-76
2021/05/25 09:21:06;;;;;;;17.50;4.65;;;;;;;15.27;72.17;97855.31;1786901;80;21406;-76
2021/05/25 09:23:43;;;;;;;4.00;2.27;;;;;;;15.32;71.86;97863.38;1786749;79;21003;-76
2021/05/25 09:26:12;;;;;;;5.72;3.00;;;;;;;15.42;71.45;97857.08;1786792;80;20979;-76
2021/05/25 09:29:02;;;;;;;4.85;2.47;;;;;;;15.40;71.63;97860.69;1786672;79;20955;-76
2021/05/25 09:31:51;;;;;;;4.35;2.65;;;;;;;15.45;71.74;97862.45;1786802;80;21022;-76
2021/05/25 09:34:20;;;;;;;5.60;2.60;;;;;;;15.47;71.68;97855.58;1756682;80;21131;-76
2021/05/25 09:37:03;;;;;;;16.40;12.53;;;;;;;15.57;71.46;97862.68;1786694;80;21443;-77
2021/05/25 09:39:47;;;;;;;44.13;27.67;;;;;;;15.64;71.39;97860.89;1786664;80;21455;-76
2021/05/25 09:42:14;;;;;;;30.00;21.77;;;;;;;15.68;71.16;97868.13;1785250;79;20943;-76
2021/05/25 09:44:45;;;;;;;15.60;11.43;;;;;;;15.70;71.00;97867.80;1756217;80;20907;-76
2021/05/25 09:47:11;;;;;;;4.60;3.47;;;;;;;15.71;70.67;97862.02;1779171;79;21252;-77
2021/05/25 09:49:37;;;;;;;4.33;2.83;;;;;;;15.77;70.09;97860.76;1786895;80;20974;-76
2021/05/25 09:52:07;;;;;;;5.20;2.37;;;;;;;15.82;70.05;97863.12;1787242;79;20967;-76
2021/05/25 09:54:34;;;;;;;4.67;2.52;;;;;;;15.89;70.19;97866.16;1786599;80;20963;-76
2021/05/25 09:57:02;;;;;;;5.50;2.50;;;;;;;15.92;70.36;97867.72;1786760;79;21050;-76
2021/05/25 09:59:35;;;;;;;4.60;2.40;;;;;;;16.03;69.63;97869.58;1786713;80;21106;-77
2021/05/25 10:02:18;;;;;;;3.65;2.58;;;;;;;16.12;69.10;97866.86;1786660;79;20980;-76
2021/05/25 10:05:06;;;;;;;6.33;2.95;;;;;;;16.16;68.91;97867.85;1756384;80;20949;-75
2021/05/25 10:07:34;;;;;;;5.17;3.45;;;;;;;16.21;69.00;97859.48;1786698;79;20949;-76
2021/05/25 10:10:02;;;;;;;3.65;2.52;;;;;;;16.41;68.53;97864.34;1786900;80;20872;-76
2021/05/25 10:12:29;;;;;;;3.40;2.10;;;;;;;16.57;67.88;97867.37;1786914;79;21398;-77
2021/05/25 10:14:56;;;;;;;6.10;2.50;;;;;;;16.73;67.88;97870.45;1786615;80;20916;-76
2021/05/25 10:17:43;;;;;;;2.02;1.42;;;;;;;16.84;67.75;97875.29;1786671;79;20983;-76
2021/05/25 10:19:59;;;;;;;5.28;2.12;;;;;;;16.86;65.65;97876.33;1782094;80;20931;-76
2021/05/25 10:22:25;;;;;;;3.98;2.00;;;;;;;16.48;66.48;97879.67;1786711;79;20848;-76
2021/05/25 10:24:52;;;;;;;3.40;2.17;;;;;;;16.25;66.93;97887.23;1786680;80;21064;-76
2021/05/25 10:27:18;;;;;;;5.50;3.17;;;;;;;16.11;67.50;97889.30;1786501;79;20876;-76
2021/05/25 10:29:44;;;;;;;9.45;6.53;;;;;;;16.07;67.47;97890.50;1788319;80;20923;-76
2021/05/25 10:32:21;;;;;;;9.85;3.70;;;;;;;16.10;67.25;97888.25;1790495;78;21042;-76
2021/05/25 10:34:51;;;;;;;3.92;3.02;;;;;;;16.03;67.82;97892.25;1781712;80;20916;-77
2021/05/25 10:37:17;;;;;;;4.85;2.90;;;;;;;16.15;67.49;97890.28;1762285;80;21104;-77
2021/05/25 10:39:44;;;;;;;6.65;2.60;;;;;;;16.19;67.59;97883.04;1789987;80;20915;-76
2021/05/25 10:42:27;;;;;;;2.92;2.00;;;;;;;16.35;68.05;97886.12;1738723;78;21122;-76
2021/05/25 10:45:04;;;;;;;4.45;3.02;;;;;;;16.41;68.25;97890.84;1790026;80;21023;-77
2021/05/25 10:47:36;;;;;;;4.35;2.70;;;;;;;16.42;68.17;97886.45;1790191;78;21475;-76
2021/05/25 10:50:24;;;;;;;4.08;2.70;;;;;;;16.39;67.84;97887.08;1763763;80;21640;-76
2021/05/25 10:52:59;;;;;;;3.15;2.58;;;;;;;16.25;67.72;97896.80;1788938;78;20871;-76
2021/05/25 10:55:34;;;;;;;4.42;2.80;;;;;;;16.10;67.87;97902.72;1789994;80;20923;-75
2021/05/25 10:58:28;;;;;;;3.30;2.37;;;;;;;15.99;68.22;97905.52;1790030;78;20963;-76
2021/05/25 11:00:51;;;;;;;5.00;3.30;;;;;;;16.05;68.23;97907.76;1789222;80;20979;-76
2021/05/25 11:03:20;;;;;;;4.50;3.12;;;;;;;16.09;68.56;97917.52;1790024;78;21518;-75
2021/05/25 11:05:51;;;;;;;5.00;3.22;;;;;;;16.04;68.81;97921.75;1789982;80;20935;-77
2021/05/25 11:08:25;;;;;;;4.62;3.40;;;;;;;15.92;69.28;97920.20;1790035;78;21364;-76
2021/05/25 11:11:11;;;;;;;5.80;3.35;;;;;;;16.02;69.57;97918.53;1790051;80;20951;-76
2021/05/25 11:13:47;;;;;;;4.08;3.08;;;;;;;16.10;69.64;97926.52;1763944;80;21327;-75
2021/05/25 11:16:28;;;;;;;8.10;5.55;;;;;;;16.12;69.66;97925.06;1789926;80;21009;-77
2021/05/25 11:19:09;;;;;;;4.42;3.77;;;;;;;16.19;69.57;97927.34;1790072;78;20924;-75
2021/05/25 11:24:35;;;;;;;3.50;3.05;;;;;;;16.11;69.70;97924.83;1790147;80;21090;-76
2021/05/25 11:27:09;;;;;;;4.45;3.33;;;;;;;16.08;70.24;97931.74;1790206;78;20991;-76
2021/05/25 11:29:52;;;;;;;4.42;3.08;;;;;;;15.96;70.28;97929.36;1761495;80;21002;-76
2021/05/25 11:32:24;;;;;;;4.37;2.98;;;;;;;16.00;70.65;97930.34;1779489;79;20960;-75
2021/05/25 11:34:58;;;;;;;3.25;1.60;;;;;;;16.07;70.99;97943.80;1779601;80;20932;-76
2021/05/25 11:37:24;;;;;;;7.33;3.62;;;;;;;16.02;71.08;97935.73;1765014;79;20928;-76
2021/05/25 11:39:51;;;;;;;2.65;1.85;;;;;;;15.98;70.52;97933.94;1779767;80;21007;-76